sensor_id;sensor_type;location;lat;lon;timestamp;P1;durP1;ratioP1;P2;durP2;ratioP2
73684;SDS011;61985;51.070;14.064;2022-10-22T00:00:34;43.08;;;20.58;;
73684;SDS011;61985;51.070;14.064;2022-10-22T00:02:59;42.03;;;21.00;;
73684;SDS011;61985;51.070;14.064;2022-10-22T00:05:24;45.95;;;21.20;;
73684;SDS011;61985;51.070;14.064;2022-10-22T00:07:50;43.03;;;22.20;;
73684;SDS011;61985;51.070;14.064;2022-10-22T00:10:15;44.92;;;22.20;;
73684;SDS011;61985;51.070;14.064;2022-10-22T00:12:42;45.22;;;21.92;;
73684;SDS011;61985;51.070;14.064;2022-10-22T00:15:09;45.40;;;21.90;;
73684;SDS011;61985;51.070;14.064;2022-10-22T00:17:35;44.75;;;21.85;;
73684;SDS011;61985;51.070;14.064;2022-10-22T00:20:00;43.90;;;22.58;;
73684;SDS011;61985;51.070;14.064;2022-10-22T00:22:26;52.50;;;23.40;;
73684;SDS011;61985;51.070;14.064;2022-10-22T00:24:51;48.08;;;23.27;;
73684;SDS011;61985;51.070;14.064;2022-10-22T00:27:16;50.45;;;23.85;;
73684;SDS011;61985;51.070;14.064;2022-10-22T00:29:42;46.05;;;23.50;;
73684;SDS011;61985;51.070;14.064;2022-10-22T00:32:07;46.25;;;23.05;;
73684;SDS011;61985;51.070;14.064;2022-10-22T00:34:33;47.60;;;23.45;;
73684;SDS011;61985;51.070;14.064;2022-10-22T00:36:58;46.30;;;22.80;;
73684;SDS011;61985;51.070;14.064;2022-10-22T00:39:24;50.30;;;22.38;;
73684;SDS011;61985;51.070;14.064;2022-10-22T00:41:51;51.13;;;23.50;;
73684;SDS011;61985;51.070;14.064;2022-10-22T00:47:20;48.55;;;21.90;;
73684;SDS011;61985;51.070;14.064;2022-10-22T00:49:47;45.85;;;21.60;;
73684;SDS011;61985;51.070;14.064;2022-10-22T00:52:14;47.33;;;21.98;;
73684;SDS011;61985;51.070;14.064;2022-10-22T00:54:39;51.33;;;23.63;;
73684;SDS011;61985;51.070;14.064;2022-10-22T00:57:06;40.95;;;21.70;;
73684;SDS011;61985;51.070;14.064;2022-10-22T00:59:31;50.10;;;22.13;;
73684;SDS011;61985;51.070;14.064;2022-10-22T01:01:57;49.20;;;23.27;;
73684;SDS011;61985;51.070;14.064;2022-10-22T01:04:23;49.67;;;22.75;;
73684;SDS011;61985;51.070;14.064;2022-10-22T01:06:48;44.25;;;23.27;;
73684;SDS011;61985;51.070;14.064;2022-10-22T01:12:02;44.42;;;23.05;;
73684;SDS011;61985;51.070;14.064;2022-10-22T01:17:09;48.25;;;24.15;;
73684;SDS011;61985;51.070;14.064;2022-10-22T01:20:05;46.47;;;21.97;;
73684;SDS011;61985;51.070;14.064;2022-10-22T01:31:22;47.17;;;23.02;;
73684;SDS011;61985;51.070;14.064;2022-10-22T01:33:50;43.35;;;21.85;;
73684;SDS011;61985;51.070;14.064;2022-10-22T01:36:18;48.20;;;22.92;;
73684;SDS011;61985;51.070;14.064;2022-10-22T01:38:44;46.67;;;21.83;;
73684;SDS011;61985;51.070;14.064;2022-10-22T01:41:11;46.35;;;21.73;;
73684;SDS011;61985;51.070;14.064;2022-10-22T01:43:36;50.95;;;21.80;;
73684;SDS011;61985;51.070;14.064;2022-10-22T01:46:03;46.65;;;21.90;;
73684;SDS011;61985;51.070;14.064;2022-10-22T01:53:38;45.08;;;21.90;;
73684;SDS011;61985;51.070;14.064;2022-10-22T01:56:15;48.33;;;22.92;;
73684;SDS011;61985;51.070;14.064;2022-10-22T02:04:31;46.90;;;22.67;;
73684;SDS011;61985;51.070;14.064;2022-10-22T02:07:03;44.33;;;21.85;;
73684;SDS011;61985;51.070;14.064;2022-10-22T02:09:31;46.08;;;22.85;;
73684;SDS011;61985;51.070;14.064;2022-10-22T02:11:59;48.55;;;22.05;;
73684;SDS011;61985;51.070;14.064;2022-10-22T02:14:27;44.65;;;21.20;;
73684;SDS011;61985;51.070;14.064;2022-10-22T02:16:55;44.92;;;21.60;;
73684;SDS011;61985;51.070;14.064;2022-10-22T02:19:43;44.45;;;21.88;;
73684;SDS011;61985;51.070;14.064;2022-10-22T02:22:18;51.45;;;22.02;;
73684;SDS011;61985;51.070;14.064;2022-10-22T02:24:45;43.90;;;22.77;;
73684;SDS011;61985;51.070;14.064;2022-10-22T02:27:14;49.25;;;22.88;;
73684;SDS011;61985;51.070;14.064;2022-10-22T02:29:49;46.10;;;22.27;;
73684;SDS011;61985;51.070;14.064;2022-10-22T02:32:20;44.15;;;20.80;;
73684;SDS011;61985;51.070;14.064;2022-10-22T02:34:50;45.05;;;22.90;;
73684;SDS011;61985;51.070;14.064;2022-10-22T02:37:17;51.45;;;23.83;;
73684;SDS011;61985;51.070;14.064;2022-10-22T02:39:43;44.75;;;21.52;;
73684;SDS011;61985;51.070;14.064;2022-10-22T02:42:09;53.42;;;23.52;;
73684;SDS011;61985;51.070;14.064;2022-10-22T02:44:36;49.95;;;23.38;;
73684;SDS011;61985;51.070;14.064;2022-10-22T02:47:04;43.92;;;21.70;;
73684;SDS011;61985;51.070;14.064;2022-10-22T02:49:29;54.05;;;22.83;;
73684;SDS011;61985;51.070;14.064;2022-10-22T02:51:54;50.70;;;22.95;;
73684;SDS011;61985;51.070;14.064;2022-10-22T02:54:20;48.05;;;22.13;;
73684;SDS011;61985;51.070;14.064;2022-10-22T02:56:45;49.25;;;21.98;;
73684;SDS011;61985;51.070;14.064;2022-10-22T02:59:10;47.42;;;22.80;;
73684;SDS011;61985;51.070;14.064;2022-10-22T03:01:36;46.92;;;22.63;;
73684;SDS011;61985;51.070;14.064;2022-10-22T03:04:01;50.35;;;21.83;;
73684;SDS011;61985;51.070;14.064;2022-10-22T03:06:27;43.85;;;21.38;;
73684;SDS011;61985;51.070;14.064;2022-10-22T03:08:52;44.42;;;21.60;;
73684;SDS011;61985;51.070;14.064;2022-10-22T03:11:18;51.13;;;21.88;;
73684;SDS011;61985;51.070;14.064;2022-10-22T03:13:43;44.70;;;20.67;;
73684;SDS011;61985;51.070;14.064;2022-10-22T03:16:08;44.10;;;20.17;;
73684;SDS011;61985;51.070;14.064;2022-10-22T03:18:34;43.40;;;20.63;;
73684;SDS011;61985;51.070;14.064;2022-10-22T03:21:10;43.60;;;21.52;;
73684;SDS011;61985;51.070;14.064;2022-10-22T03:23:43;43.30;;;20.50;;
73684;SDS011;61985;51.070;14.064;2022-10-22T03:26:09;43.13;;;21.33;;
73684;SDS011;61985;51.070;14.064;2022-10-22T03:28:37;45.58;;;21.42;;
73684;SDS011;61985;51.070;14.064;2022-10-22T03:31:04;49.50;;;21.23;;
73684;SDS011;61985;51.070;14.064;2022-10-22T03:33:29;44.75;;;22.58;;
73684;SDS011;61985;51.070;14.064;2022-10-22T03:35:54;44.85;;;22.02;;
73684;SDS011;61985;51.070;14.064;2022-10-22T03:38:20;46.67;;;21.63;;
73684;SDS011;61985;51.070;14.064;2022-10-22T03:40:45;44.45;;;21.55;;
73684;SDS011;61985;51.070;14.064;2022-10-22T03:43:11;47.67;;;22.27;;
73684;SDS011;61985;51.070;14.064;2022-10-22T03:45:37;48.05;;;21.58;;
73684;SDS011;61985;51.070;14.064;2022-10-22T03:48:02;45.40;;;21.90;;
73684;SDS011;61985;51.070;14.064;2022-10-22T03:50:28;44.42;;;21.45;;
73684;SDS011;61985;51.070;14.064;2022-10-22T03:52:53;44.20;;;21.13;;
73684;SDS011;61985;51.070;14.064;2022-10-22T03:55:19;47.53;;;21.65;;
73684;SDS011;61985;51.070;14.064;2022-10-22T03:57:44;39.97;;;20.70;;
73684;SDS011;61985;51.070;14.064;2022-10-22T04:00:10;42.88;;;20.50;;
73684;SDS011;61985;51.070;14.064;2022-10-22T04:02:35;40.25;;;20.55;;
73684;SDS011;61985;51.070;14.064;2022-10-22T04:05:01;43.72;;;21.27;;
73684;SDS011;61985;51.070;14.064;2022-10-22T04:07:26;42.45;;;20.92;;
73684;SDS011;61985;51.070;14.064;2022-10-22T04:09:52;45.92;;;20.40;;
73684;SDS011;61985;51.070;14.064;2022-10-22T04:12:17;44.22;;;21.77;;
73684;SDS011;61985;51.070;14.064;2022-10-22T04:14:42;44.05;;;21.63;;
73684;SDS011;61985;51.070;14.064;2022-10-22T04:17:08;43.85;;;20.65;;
73684;SDS011;61985;51.070;14.064;2022-10-22T04:19:33;42.72;;;20.00;;
73684;SDS011;61985;51.070;14.064;2022-10-22T04:21:59;42.65;;;21.55;;
73684;SDS011;61985;51.070;14.064;2022-10-22T04:24:25;45.70;;;22.13;;
73684;SDS011;61985;51.070;14.064;2022-10-22T04:26:52;41.17;;;20.60;;
73684;SDS011;61985;51.070;14.064;2022-10-22T04:29:18;47.53;;;21.85;;
73684;SDS011;61985;51.070;14.064;2022-10-22T04:31:43;47.70;;;21.90;;
73684;SDS011;61985;51.070;14.064;2022-10-22T04:34:09;43.45;;;20.35;;
73684;SDS011;61985;51.070;14.064;2022-10-22T04:36:34;48.08;;;21.45;;
73684;SDS011;61985;51.070;14.064;2022-10-22T04:39:00;45.00;;;21.83;;
73684;SDS011;61985;51.070;14.064;2022-10-22T04:41:30;49.42;;;21.13;;
73684;SDS011;61985;51.070;14.064;2022-10-22T04:43:57;41.15;;;20.45;;
73684;SDS011;61985;51.070;14.064;2022-10-22T04:46:23;42.42;;;20.27;;
73684;SDS011;61985;51.070;14.064;2022-10-22T04:48:50;42.75;;;19.65;;
73684;SDS011;61985;51.070;14.064;2022-10-22T04:51:17;40.80;;;19.92;;
73684;SDS011;61985;51.070;14.064;2022-10-22T04:53:43;51.22;;;21.45;;
73684;SDS011;61985;51.070;14.064;2022-10-22T04:58:40;37.42;;;20.10;;
73684;SDS011;61985;51.070;14.064;2022-10-22T05:01:10;41.90;;;20.77;;
73684;SDS011;61985;51.070;14.064;2022-10-22T05:03:40;39.50;;;19.90;;
73684;SDS011;61985;51.070;14.064;2022-10-22T05:06:06;36.80;;;19.55;;
73684;SDS011;61985;51.070;14.064;2022-10-22T05:08:32;37.10;;;18.60;;
73684;SDS011;61985;51.070;14.064;2022-10-22T05:10:57;39.10;;;19.05;;
73684;SDS011;61985;51.070;14.064;2022-10-22T05:13:22;36.92;;;19.65;;
73684;SDS011;61985;51.070;14.064;2022-10-22T05:15:48;41.80;;;20.30;;
73684;SDS011;61985;51.070;14.064;2022-10-22T05:18:13;39.47;;;19.55;;
73684;SDS011;61985;51.070;14.064;2022-10-22T05:20:39;37.17;;;19.70;;
73684;SDS011;61985;51.070;14.064;2022-10-22T05:23:05;44.05;;;19.67;;
73684;SDS011;61985;51.070;14.064;2022-10-22T05:25:30;36.85;;;18.55;;
73684;SDS011;61985;51.070;14.064;2022-10-22T05:27:56;36.22;;;18.73;;
73684;SDS011;61985;51.070;14.064;2022-10-22T05:30:21;35.92;;;18.77;;
73684;SDS011;61985;51.070;14.064;2022-10-22T05:32:46;34.85;;;16.90;;
73684;SDS011;61985;51.070;14.064;2022-10-22T05:35:12;41.30;;;19.38;;
73684;SDS011;61985;51.070;14.064;2022-10-22T05:37:37;33.45;;;18.70;;
73684;SDS011;61985;51.070;14.064;2022-10-22T05:40:03;36.70;;;18.50;;
73684;SDS011;61985;51.070;14.064;2022-10-22T05:42:32;34.72;;;17.42;;
73684;SDS011;61985;51.070;14.064;2022-10-22T05:44:57;36.38;;;17.65;;
73684;SDS011;61985;51.070;14.064;2022-10-22T05:47:23;35.58;;;17.65;;
73684;SDS011;61985;51.070;14.064;2022-10-22T05:49:48;37.80;;;19.05;;
73684;SDS011;61985;51.070;14.064;2022-10-22T05:52:14;33.63;;;17.73;;
73684;SDS011;61985;51.070;14.064;2022-10-22T05:54:39;29.00;;;16.20;;
73684;SDS011;61985;51.070;14.064;2022-10-22T05:57:05;38.40;;;18.45;;
73684;SDS011;61985;51.070;14.064;2022-10-22T05:59:30;36.20;;;17.67;;
73684;SDS011;61985;51.070;14.064;2022-10-22T06:01:56;33.85;;;17.98;;
73684;SDS011;61985;51.070;14.064;2022-10-22T06:04:21;39.88;;;18.85;;
73684;SDS011;61985;51.070;14.064;2022-10-22T06:06:50;33.17;;;16.35;;
73684;SDS011;61985;51.070;14.064;2022-10-22T06:09:28;36.28;;;17.25;;
73684;SDS011;61985;51.070;14.064;2022-10-22T06:11:55;33.00;;;17.92;;
73684;SDS011;61985;51.070;14.064;2022-10-22T06:14:22;33.67;;;17.00;;
73684;SDS011;61985;51.070;14.064;2022-10-22T06:16:48;38.42;;;16.92;;
73684;SDS011;61985;51.070;14.064;2022-10-22T06:19:14;35.00;;;16.95;;
73684;SDS011;61985;51.070;14.064;2022-10-22T06:21:41;36.58;;;17.13;;
73684;SDS011;61985;51.070;14.064;2022-10-22T06:24:07;31.70;;;17.67;;
73684;SDS011;61985;51.070;14.064;2022-10-22T06:26:33;34.85;;;17.48;;
73684;SDS011;61985;51.070;14.064;2022-10-22T06:28:59;32.53;;;16.10;;
73684;SDS011;61985;51.070;14.064;2022-10-22T06:31:24;37.40;;;17.90;;
73684;SDS011;61985;51.070;14.064;2022-10-22T06:33:51;36.30;;;16.38;;
73684;SDS011;61985;51.070;14.064;2022-10-22T06:36:18;31.48;;;16.08;;
73684;SDS011;61985;51.070;14.064;2022-10-22T06:38:45;29.40;;;16.42;;
73684;SDS011;61985;51.070;14.064;2022-10-22T06:41:14;29.45;;;15.63;;
73684;SDS011;61985;51.070;14.064;2022-10-22T06:43:41;38.80;;;17.75;;
73684;SDS011;61985;51.070;14.064;2022-10-22T06:46:09;35.30;;;16.95;;
73684;SDS011;61985;51.070;14.064;2022-10-22T06:48:35;35.00;;;16.70;;
73684;SDS011;61985;51.070;14.064;2022-10-22T06:51:11;31.00;;;16.35;;
73684;SDS011;61985;51.070;14.064;2022-10-22T06:53:37;38.70;;;16.95;;
73684;SDS011;61985;51.070;14.064;2022-10-22T06:56:05;33.47;;;16.02;;
73684;SDS011;61985;51.070;14.064;2022-10-22T06:58:32;37.47;;;17.60;;
73684;SDS011;61985;51.070;14.064;2022-10-22T07:01:05;34.15;;;17.50;;
73684;SDS011;61985;51.070;14.064;2022-10-22T07:03:34;41.22;;;17.33;;
73684;SDS011;61985;51.070;14.064;2022-10-22T07:06:00;35.92;;;17.45;;
73684;SDS011;61985;51.070;14.064;2022-10-22T07:08:27;31.65;;;16.17;;
73684;SDS011;61985;51.070;14.064;2022-10-22T07:10:53;34.25;;;17.35;;
73684;SDS011;61985;51.070;14.064;2022-10-22T07:13:19;31.27;;;17.00;;
73684;SDS011;61985;51.070;14.064;2022-10-22T07:15:44;33.22;;;15.88;;
73684;SDS011;61985;51.070;14.064;2022-10-22T07:18:09;30.98;;;17.25;;
73684;SDS011;61985;51.070;14.064;2022-10-22T07:20:35;31.48;;;15.80;;
73684;SDS011;61985;51.070;14.064;2022-10-22T07:23:00;33.22;;;15.85;;
73684;SDS011;61985;51.070;14.064;2022-10-22T07:25:25;32.25;;;15.95;;
73684;SDS011;61985;51.070;14.064;2022-10-22T07:27:51;30.10;;;15.00;;
73684;SDS011;61985;51.070;14.064;2022-10-22T07:30:16;27.05;;;14.55;;
73684;SDS011;61985;51.070;14.064;2022-10-22T07:32:42;28.33;;;15.52;;
73684;SDS011;61985;51.070;14.064;2022-10-22T07:35:07;28.40;;;15.35;;
73684;SDS011;61985;51.070;14.064;2022-10-22T07:37:33;30.17;;;15.95;;
73684;SDS011;61985;51.070;14.064;2022-10-22T07:39:58;30.25;;;14.15;;
73684;SDS011;61985;51.070;14.064;2022-10-22T07:42:24;44.85;;;26.75;;
73684;SDS011;61985;51.070;14.064;2022-10-22T07:44:49;34.90;;;20.15;;
73684;SDS011;61985;51.070;14.064;2022-10-22T07:47:14;44.13;;;25.00;;
73684;SDS011;61985;51.070;14.064;2022-10-22T07:49:40;42.10;;;22.40;;
73684;SDS011;61985;51.070;14.064;2022-10-22T07:52:05;34.80;;;20.73;;
73684;SDS011;61985;51.070;14.064;2022-10-22T07:54:31;32.95;;;19.35;;
73684;SDS011;61985;51.070;14.064;2022-10-22T07:56:57;32.78;;;18.80;;
73684;SDS011;61985;51.070;14.064;2022-10-22T07:59:22;32.53;;;20.00;;
73684;SDS011;61985;51.070;14.064;2022-10-22T08:01:47;26.42;;;14.65;;
73684;SDS011;61985;51.070;14.064;2022-10-22T08:04:13;26.83;;;14.50;;
73684;SDS011;61985;51.070;14.064;2022-10-22T08:06:38;29.67;;;15.27;;
73684;SDS011;61985;51.070;14.064;2022-10-22T08:09:04;25.77;;;14.85;;
73684;SDS011;61985;51.070;14.064;2022-10-22T08:11:29;28.17;;;15.13;;
73684;SDS011;61985;51.070;14.064;2022-10-22T08:13:57;27.73;;;14.77;;
73684;SDS011;61985;51.070;14.064;2022-10-22T08:16:22;23.98;;;13.90;;
73684;SDS011;61985;51.070;14.064;2022-10-22T08:18:48;26.30;;;14.98;;
73684;SDS011;61985;51.070;14.064;2022-10-22T08:21:14;23.35;;;15.55;;
73684;SDS011;61985;51.070;14.064;2022-10-22T08:23:41;24.27;;;14.23;;
73684;SDS011;61985;51.070;14.064;2022-10-22T08:26:06;25.42;;;14.18;;
73684;SDS011;61985;51.070;14.064;2022-10-22T08:28:32;67.05;;;35.63;;
73684;SDS011;61985;51.070;14.064;2022-10-22T08:31:01;43.67;;;23.35;;
73684;SDS011;61985;51.070;14.064;2022-10-22T08:33:29;25.35;;;14.00;;
73684;SDS011;61985;51.070;14.064;2022-10-22T08:35:55;22.55;;;12.95;;
73684;SDS011;61985;51.070;14.064;2022-10-22T08:38:20;22.85;;;11.93;;
73684;SDS011;61985;51.070;14.064;2022-10-22T08:40:47;19.27;;;12.20;;
73684;SDS011;61985;51.070;14.064;2022-10-22T08:46:16;23.40;;;14.05;;
73684;SDS011;61985;51.070;14.064;2022-10-22T08:48:52;33.10;;;20.58;;
73684;SDS011;61985;51.070;14.064;2022-10-22T08:51:23;28.20;;;13.95;;
73684;SDS011;61985;51.070;14.064;2022-10-22T08:59:46;26.27;;;13.95;;
73684;SDS011;61985;51.070;14.064;2022-10-22T09:02:31;20.88;;;11.43;;
73684;SDS011;61985;51.070;14.064;2022-10-22T09:05:22;17.15;;;10.02;;
73684;SDS011;61985;51.070;14.064;2022-10-22T09:07:51;18.27;;;10.32;;
73684;SDS011;61985;51.070;14.064;2022-10-22T09:10:18;18.60;;;9.63;;
73684;SDS011;61985;51.070;14.064;2022-10-22T09:12:54;16.67;;;9.80;;
73684;SDS011;61985;51.070;14.064;2022-10-22T09:15:53;19.60;;;10.88;;
73684;SDS011;61985;51.070;14.064;2022-10-22T09:24:25;17.85;;;10.57;;
73684;SDS011;61985;51.070;14.064;2022-10-22T09:27:03;17.23;;;9.45;;
73684;SDS011;61985;51.070;14.064;2022-10-22T09:29:38;29.95;;;17.40;;
73684;SDS011;61985;51.070;14.064;2022-10-22T09:32:04;36.55;;;20.70;;
73684;SDS011;61985;51.070;14.064;2022-10-22T09:34:29;33.65;;;18.23;;
73684;SDS011;61985;51.070;14.064;2022-10-22T09:37:00;24.00;;;15.88;;
73684;SDS011;61985;51.070;14.064;2022-10-22T09:39:28;22.25;;;14.82;;
73684;SDS011;61985;51.070;14.064;2022-10-22T09:42:06;21.48;;;14.18;;
73684;SDS011;61985;51.070;14.064;2022-10-22T09:44:34;20.70;;;13.45;;
73684;SDS011;61985;51.070;14.064;2022-10-22T09:47:25;18.20;;;11.73;;
73684;SDS011;61985;51.070;14.064;2022-10-22T09:53:10;13.73;;;7.28;;
73684;SDS011;61985;51.070;14.064;2022-10-22T09:55:37;10.25;;;6.80;;
73684;SDS011;61985;51.070;14.064;2022-10-22T09:58:03;13.15;;;6.95;;
73684;SDS011;61985;51.070;14.064;2022-10-22T10:00:29;11.40;;;6.13;;
73684;SDS011;61985;51.070;14.064;2022-10-22T10:02:55;9.38;;;6.03;;
73684;SDS011;61985;51.070;14.064;2022-10-22T10:05:28;10.38;;;5.47;;
73684;SDS011;61985;51.070;14.064;2022-10-22T10:07:58;9.95;;;6.55;;
73684;SDS011;61985;51.070;14.064;2022-10-22T10:21:29;8.45;;;4.78;;
73684;SDS011;61985;51.070;14.064;2022-10-22T10:24:26;7.65;;;4.95;;
73684;SDS011;61985;51.070;14.064;2022-10-22T10:27:24;9.65;;;6.15;;
73684;SDS011;61985;51.070;14.064;2022-10-22T10:40:42;6.57;;;4.57;;
73684;SDS011;61985;51.070;14.064;2022-10-22T10:43:14;10.85;;;7.00;;
73684;SDS011;61985;51.070;14.064;2022-10-22T10:48:49;13.18;;;7.15;;
73684;SDS011;61985;51.070;14.064;2022-10-22T10:56:38;7.47;;;4.55;;
73684;SDS011;61985;51.070;14.064;2022-10-22T10:59:16;8.32;;;4.45;;
73684;SDS011;61985;51.070;14.064;2022-10-22T11:01:46;10.90;;;5.72;;
73684;SDS011;61985;51.070;14.064;2022-10-22T11:07:28;8.75;;;6.30;;
73684;SDS011;61985;51.070;14.064;2022-10-22T11:09:59;10.00;;;5.18;;
73684;SDS011;61985;51.070;14.064;2022-10-22T11:12:34;13.75;;;5.20;;
73684;SDS011;61985;51.070;14.064;2022-10-22T11:17:41;8.88;;;5.32;;
73684;SDS011;61985;51.070;14.064;2022-10-22T11:20:17;7.72;;;4.03;;
73684;SDS011;61985;51.070;14.064;2022-10-22T11:22:47;9.65;;;6.00;;
73684;SDS011;61985;51.070;14.064;2022-10-22T11:25:31;8.00;;;4.93;;
73684;SDS011;61985;51.070;14.064;2022-10-22T11:28:17;10.50;;;5.63;;
73684;SDS011;61985;51.070;14.064;2022-10-22T11:30:48;9.27;;;5.07;;
73684;SDS011;61985;51.070;14.064;2022-10-22T11:33:21;10.18;;;4.90;;
73684;SDS011;61985;51.070;14.064;2022-10-22T11:35:54;7.03;;;4.05;;
73684;SDS011;61985;51.070;14.064;2022-10-22T11:38:23;10.18;;;4.18;;
73684;SDS011;61985;51.070;14.064;2022-10-22T11:43:26;8.95;;;4.50;;
73684;SDS011;61985;51.070;14.064;2022-10-22T11:48:43;6.13;;;3.60;;
73684;SDS011;61985;51.070;14.064;2022-10-22T11:53:57;9.38;;;4.10;;
73684;SDS011;61985;51.070;14.064;2022-10-22T11:56:26;8.63;;;4.63;;
73684;SDS011;61985;51.070;14.064;2022-10-22T11:59:07;7.93;;;3.97;;
73684;SDS011;61985;51.070;14.064;2022-10-22T12:04:48;7.72;;;4.85;;
73684;SDS011;61985;51.070;14.064;2022-10-22T12:07:31;11.20;;;5.65;;
73684;SDS011;61985;51.070;14.064;2022-10-22T12:09:59;9.45;;;5.10;;
73684;SDS011;61985;51.070;14.064;2022-10-22T12:12:24;19.23;;;10.85;;
73684;SDS011;61985;51.070;14.064;2022-10-22T12:14:53;17.10;;;11.13;;
73684;SDS011;61985;51.070;14.064;2022-10-22T12:17:22;8.68;;;5.72;;
73684;SDS011;61985;51.070;14.064;2022-10-22T12:19:50;10.02;;;5.53;;
73684;SDS011;61985;51.070;14.064;2022-10-22T12:22:25;17.05;;;11.00;;
73684;SDS011;61985;51.070;14.064;2022-10-22T12:24:53;11.13;;;7.38;;
73684;SDS011;61985;51.070;14.064;2022-10-22T12:27:40;10.25;;;5.72;;
73684;SDS011;61985;51.070;14.064;2022-10-22T12:30:15;8.90;;;5.45;;
73684;SDS011;61985;51.070;14.064;2022-10-22T12:32:43;9.27;;;5.63;;
73684;SDS011;61985;51.070;14.064;2022-10-22T12:35:16;7.95;;;4.47;;
73684;SDS011;61985;51.070;14.064;2022-10-22T12:37:44;7.70;;;4.75;;
73684;SDS011;61985;51.070;14.064;2022-10-22T12:40:21;7.78;;;4.47;;
73684;SDS011;61985;51.070;14.064;2022-10-22T12:42:53;11.07;;;5.28;;
73684;SDS011;61985;51.070;14.064;2022-10-22T12:45:20;8.63;;;5.00;;
73684;SDS011;61985;51.070;14.064;2022-10-22T12:47:47;8.43;;;5.47;;
73684;SDS011;61985;51.070;14.064;2022-10-22T12:50:19;9.02;;;5.30;;
73684;SDS011;61985;51.070;14.064;2022-10-22T12:52:49;8.85;;;4.82;;
73684;SDS011;61985;51.070;14.064;2022-10-22T12:55:18;6.97;;;4.53;;
73684;SDS011;61985;51.070;14.064;2022-10-22T12:57:47;8.80;;;5.18;;
73684;SDS011;61985;51.070;14.064;2022-10-22T13:00:20;7.47;;;4.50;;
73684;SDS011;61985;51.070;14.064;2022-10-22T13:02:48;7.53;;;3.95;;
73684;SDS011;61985;51.070;14.064;2022-10-22T13:05:30;9.10;;;3.85;;
73684;SDS011;61985;51.070;14.064;2022-10-22T13:08:29;7.70;;;3.80;;
73684;SDS011;61985;51.070;14.064;2022-10-22T13:10:54;7.35;;;3.72;;
73684;SDS011;61985;51.070;14.064;2022-10-22T13:13:29;6.15;;;3.47;;
73684;SDS011;61985;51.070;14.064;2022-10-22T13:16:10;9.13;;;3.90;;
73684;SDS011;61985;51.070;14.064;2022-10-22T13:18:41;7.82;;;4.10;;
73684;SDS011;61985;51.070;14.064;2022-10-22T13:21:22;6.18;;;3.38;;
73684;SDS011;61985;51.070;14.064;2022-10-22T13:23:54;7.97;;;3.72;;
73684;SDS011;61985;51.070;14.064;2022-10-22T13:26:21;7.68;;;3.30;;
73684;SDS011;61985;51.070;14.064;2022-10-22T13:28:49;7.13;;;3.72;;
73684;SDS011;61985;51.070;14.064;2022-10-22T13:31:22;8.65;;;4.30;;
73684;SDS011;61985;51.070;14.064;2022-10-22T13:34:12;7.60;;;3.63;;
73684;SDS011;61985;51.070;14.064;2022-10-22T13:36:39;6.82;;;3.92;;
73684;SDS011;61985;51.070;14.064;2022-10-22T13:39:05;5.32;;;3.03;;
73684;SDS011;61985;51.070;14.064;2022-10-22T13:41:38;7.45;;;3.40;;
73684;SDS011;61985;51.070;14.064;2022-10-22T13:44:04;6.10;;;3.43;;
73684;SDS011;61985;51.070;14.064;2022-10-22T13:46:29;8.05;;;3.90;;
73684;SDS011;61985;51.070;14.064;2022-10-22T13:48:55;8.07;;;4.70;;
73684;SDS011;61985;51.070;14.064;2022-10-22T13:51:23;7.78;;;4.75;;
73684;SDS011;61985;51.070;14.064;2022-10-22T13:53:53;6.70;;;3.58;;
73684;SDS011;61985;51.070;14.064;2022-10-22T13:56:19;7.70;;;3.65;;
73684;SDS011;61985;51.070;14.064;2022-10-22T13:58:46;10.77;;;4.03;;
73684;SDS011;61985;51.070;14.064;2022-10-22T14:01:17;6.10;;;3.55;;
73684;SDS011;61985;51.070;14.064;2022-10-22T14:03:51;6.40;;;3.72;;
73684;SDS011;61985;51.070;14.064;2022-10-22T14:06:19;6.93;;;3.50;;
73684;SDS011;61985;51.070;14.064;2022-10-22T14:08:47;7.25;;;4.95;;
73684;SDS011;61985;51.070;14.064;2022-10-22T14:11:15;9.10;;;4.72;;
73684;SDS011;61985;51.070;14.064;2022-10-22T14:13:41;41.88;;;8.00;;
73684;SDS011;61985;51.070;14.064;2022-10-22T14:16:10;17.05;;;5.72;;
73684;SDS011;61985;51.070;14.064;2022-10-22T14:18:41;7.85;;;4.40;;
73684;SDS011;61985;51.070;14.064;2022-10-22T14:21:07;5.30;;;3.10;;
73684;SDS011;61985;51.070;14.064;2022-10-22T14:23:33;4.93;;;3.03;;
73684;SDS011;61985;51.070;14.064;2022-10-22T14:26:00;6.28;;;2.75;;
73684;SDS011;61985;51.070;14.064;2022-10-22T14:28:26;4.28;;;2.40;;
73684;SDS011;61985;51.070;14.064;2022-10-22T14:30:52;4.20;;;2.25;;
73684;SDS011;61985;51.070;14.064;2022-10-22T14:33:19;6.35;;;2.50;;
73684;SDS011;61985;51.070;14.064;2022-10-22T14:35:48;6.07;;;2.28;;
73684;SDS011;61985;51.070;14.064;2022-10-22T14:38:13;5.00;;;1.90;;
73684;SDS011;61985;51.070;14.064;2022-10-22T14:40:39;2.90;;;1.40;;
73684;SDS011;61985;51.070;14.064;2022-10-22T14:43:09;6.43;;;1.80;;
73684;SDS011;61985;51.070;14.064;2022-10-22T14:45:35;1.67;;;1.30;;
73684;SDS011;61985;51.070;14.064;2022-10-22T14:48:01;1.98;;;1.20;;
73684;SDS011;61985;51.070;14.064;2022-10-22T14:50:26;3.38;;;1.45;;
73684;SDS011;61985;51.070;14.064;2022-10-22T14:52:51;4.10;;;1.60;;
73684;SDS011;61985;51.070;14.064;2022-10-22T14:55:17;2.40;;;1.40;;
73684;SDS011;61985;51.070;14.064;2022-10-22T14:57:43;3.22;;;1.48;;
73684;SDS011;61985;51.070;14.064;2022-10-22T15:00:18;2.55;;;1.48;;
73684;SDS011;61985;51.070;14.064;2022-10-22T15:02:45;2.70;;;1.77;;
73684;SDS011;61985;51.070;14.064;2022-10-22T15:05:11;4.93;;;1.83;;
73684;SDS011;61985;51.070;14.064;2022-10-22T15:07:37;5.15;;;1.60;;
73684;SDS011;61985;51.070;14.064;2022-10-22T15:10:03;2.00;;;1.40;;
73684;SDS011;61985;51.070;14.064;2022-10-22T15:12:30;2.75;;;1.25;;
73684;SDS011;61985;51.070;14.064;2022-10-22T15:14:55;2.15;;;1.30;;
73684;SDS011;61985;51.070;14.064;2022-10-22T15:17:21;1.85;;;1.13;;
73684;SDS011;61985;51.070;14.064;2022-10-22T15:19:46;2.17;;;1.10;;
73684;SDS011;61985;51.070;14.064;2022-10-22T15:22:12;5.07;;;1.50;;
73684;SDS011;61985;51.070;14.064;2022-10-22T15:24:38;2.00;;;1.33;;
73684;SDS011;61985;51.070;14.064;2022-10-22T15:27:07;6.95;;;1.90;;
73684;SDS011;61985;51.070;14.064;2022-10-22T15:29:33;3.72;;;1.48;;
73684;SDS011;61985;51.070;14.064;2022-10-22T15:31:58;2.53;;;1.80;;
73684;SDS011;61985;51.070;14.064;2022-10-22T15:34:28;7.70;;;4.60;;
73684;SDS011;61985;51.070;14.064;2022-10-22T15:36:57;7.68;;;3.05;;
73684;SDS011;61985;51.070;14.064;2022-10-22T15:39:24;13.73;;;5.50;;
73684;SDS011;61985;51.070;14.064;2022-10-22T15:41:50;6.75;;;3.10;;
73684;SDS011;61985;51.070;14.064;2022-10-22T15:44:16;2.53;;;1.88;;
73684;SDS011;61985;51.070;14.064;2022-10-22T15:46:43;2.83;;;1.92;;
73684;SDS011;61985;51.070;14.064;2022-10-22T15:49:09;2.58;;;1.70;;
73684;SDS011;61985;51.070;14.064;2022-10-22T15:51:35;3.50;;;1.80;;
73684;SDS011;61985;51.070;14.064;2022-10-22T15:54:00;3.33;;;1.80;;
73684;SDS011;61985;51.070;14.064;2022-10-22T15:56:27;2.83;;;1.73;;
73684;SDS011;61985;51.070;14.064;2022-10-22T15:58:54;3.42;;;1.60;;
73684;SDS011;61985;51.070;14.064;2022-10-22T16:01:20;2.42;;;1.65;;